Hovedside
METAR-TAF:

METAR-TAF

Lufthavner :

Umeå, Sverige

Umeå lufthavn

breddegrad: 63-48N, lengdegrad: 020-17E, høyde over havet: 7 m

Gjeldene værobservasjon

Denne rapporten ble laget for 11 minutter siden, klokken 08:20 UTC
Vind 8 kt fra Nord-nordvest
Temperatur -11°C
Luftfuktighet 85%
Trykk 1014 hPa
Sikt: 4200 m
Overskyet i en høyde av 900 ft
lett snø

METAR: ESNU 220820Z 34008KT 4200 -SN OVC009 M11/M13 Q1014 R14/75//45

Tid: 09:31 (08:31 UTC)

Varsel

Denne rapporten ble laget for 3 timer og 1 minutter siden, klokken 05:30 UTC
Varsel gyldig fra 22. klokken 06 UTC til 22. klokken 15 UTC
Vind 8 kt fra Nord
Sikt: 2500 m
Brutte skyer i en høyde av 800 ft
lett snø
Midlertidig
fra 22. klokken 06 UTC til 22. klokken 15 UTC
Sikt: 8000 m
Brutte skyer i en høyde av 2000 ft

TAF: ESNU 220530Z 2206/2215 36008KT 2500 -SN BKN008 TEMPO 2206/2215 8000 BKN020

Værobservasjoner og værvarsel for over 4000 flyplasser (METAR- og TAF-rapporter).

Tilgjengelige stasjoner er representert av de røde og gule prikkene på kartet.

Hold musepekeren over prikken for å se navnet på stasjonen.

Klikk så for å se værobservasjoner og -varsler.

For å forandre kartet kan du klikke på den grønne knappen med svart kryss for å zoome inn, på den grønne knappen med strek for å zoome ut, eller på de grønne pilene for å se tilstøtende kart.


METAR-TAF: